Terminal Aerodrome Forecast
Issued by NWS Wakefield, VA

Home | Current Version | Previous Version | Text Only | Print | Product List | Glossary On
Versions: 1 2 3 4 5 6 7 8 9 10 11 12 13 14 15 16 17 18 19 20 21
000
FTUS41 KAKQ 011400 AAA
TAFSBY
TAF AMD
KSBY 011405Z 0114/0212 01008KT P6SM OVC011
     FM011500 01008KT P6SM BKN025
     FM011800 01008KT P6SM SCT025
     FM012300 01004KT P6SM SCT025
     FM020500 36003KT 4SM BR FEW002 BKN025
     FM020800 00000KT 1SM BR SCT002 BKN010=

USA.gov is the U.S. government's official web portal to all federal, state and local government web resources and services.